createdAt,value
2022-09-21T00:00:53.584Z,7.88
2022-09-21T00:03:44.725Z,7.82
2022-09-21T00:06:35.127Z,7.80
2022-09-21T00:09:25.312Z,7.60
2022-09-21T00:12:16.580Z,7.25
2022-09-21T00:15:08.984Z,8.15
2022-09-21T00:17:59.904Z,8.70
2022-09-21T00:20:50.374Z,7.60
2022-09-21T00:23:41.297Z,7.95
2022-09-21T00:26:32.178Z,8.10
2022-09-21T00:29:22.068Z,7.50
2022-09-21T00:32:11.955Z,7.63
2022-09-21T00:35:03.244Z,7.65
2022-09-21T00:37:53.443Z,8.10
2022-09-21T00:40:43.703Z,7.93
2022-09-21T00:43:35.228Z,8.20
2022-09-21T00:46:30.056Z,8.85
2022-09-21T00:49:21.314Z,8.43
2022-09-21T00:52:16.235Z,7.75
2022-09-21T00:55:18.037Z,8.13
2022-09-21T00:58:13.435Z,8.80
2022-09-21T01:01:03.723Z,8.63
2022-09-21T01:03:56.302Z,9.30
2022-09-21T01:06:47.817Z,8.00
2022-09-21T01:09:40.490Z,8.27
2022-09-21T01:13:04.639Z,7.68
2022-09-21T01:16:10.068Z,7.95
2022-09-21T01:19:22.350Z,7.20
2022-09-21T01:22:47.183Z,7.07
2022-09-21T01:26:01.349Z,8.02
2022-09-21T01:29:26.157Z,7.72
2022-09-21T01:35:30.761Z,7.40
2022-09-21T01:38:43.656Z,7.30
2022-09-21T01:41:35.287Z,7.30
2022-09-21T01:44:33.277Z,7.32
2022-09-21T01:47:25.192Z,7.47
2022-09-21T01:50:18.843Z,7.22
2022-09-21T01:53:18.646Z,7.13
2022-09-21T01:56:27.440Z,7.18
2022-09-21T01:59:32.630Z,6.65
2022-09-21T02:02:31.926Z,7.93
2022-09-21T02:05:25.519Z,7.78
2022-09-21T02:11:07.019Z,6.68
2022-09-21T02:13:57.201Z,7.53
2022-09-21T02:17:07.641Z,7.13
2022-09-21T02:20:08.989Z,7.93
2022-09-21T02:23:18.180Z,7.53
2022-09-21T02:26:14.191Z,7.45
2022-09-21T02:29:19.295Z,6.55
2022-09-21T02:32:14.891Z,7.72
2022-09-21T02:35:18.895Z,7.32
2022-09-21T02:38:20.932Z,7.15
2022-09-21T02:41:16.960Z,7.35
2022-09-21T02:44:12.952Z,7.13
2022-09-21T02:47:06.376Z,6.78
2022-09-21T02:50:01.764Z,7.13
2022-09-21T02:52:54.754Z,6.72
2022-09-21T02:55:45.412Z,6.65
2022-09-21T02:58:43.167Z,6.93
2022-09-21T03:01:34.025Z,7.88
2022-09-21T03:04:24.329Z,7.05
2022-09-21T03:07:15.957Z,7.00
2022-09-21T03:10:08.206Z,6.80
2022-09-21T03:12:59.496Z,7.20
2022-09-21T03:15:49.759Z,6.30
2022-09-21T03:18:41.858Z,6.13
2022-09-21T03:21:32.148Z,6.43
2022-09-21T03:24:42.622Z,6.63
2022-09-21T03:27:33.314Z,6.80
2022-09-21T03:30:24.494Z,6.80
2022-09-21T03:33:14.615Z,6.57
2022-09-21T03:36:04.929Z,6.50
2022-09-21T03:38:55.193Z,6.35
2022-09-21T03:41:45.524Z,6.20
2022-09-21T03:44:37.140Z,6.38
2022-09-21T03:47:29.149Z,6.80
2022-09-21T03:50:19.403Z,6.80
2022-09-21T03:53:10.715Z,7.70
2022-09-21T03:56:01.041Z,7.57
2022-09-21T03:58:51.275Z,7.80
2022-09-21T04:01:42.251Z,7.90
2022-09-21T04:04:32.286Z,8.20
2022-09-21T04:07:22.730Z,7.70
2022-09-21T04:10:15.675Z,6.63
2022-09-21T04:13:06.526Z,6.75
2022-09-21T04:15:57.020Z,6.80
2022-09-21T04:18:50.245Z,6.50
2022-09-21T04:21:40.677Z,7.03
2022-09-21T04:24:30.961Z,6.18
2022-09-21T04:27:20.940Z,6.57
2022-09-21T04:30:13.306Z,5.85
2022-09-21T04:33:03.251Z,6.00
2022-09-21T04:35:56.771Z,6.25
2022-09-21T04:38:47.550Z,6.63
2022-09-21T04:41:37.774Z,6.53
2022-09-21T04:44:28.171Z,6.13
2022-09-21T04:47:18.072Z,6.53
2022-09-21T04:50:08.286Z,6.38
2022-09-21T04:52:58.691Z,6.68
2022-09-21T04:55:48.587Z,6.07
2022-09-21T04:58:39.162Z,6.38
2022-09-21T05:01:29.242Z,6.05
2022-09-21T05:04:19.350Z,6.45
2022-09-21T05:07:09.433Z,5.78
2022-09-21T05:10:05.314Z,6.18
2022-09-21T05:12:55.240Z,6.50
2022-09-21T05:15:45.250Z,6.40
2022-09-21T05:18:36.348Z,6.70
2022-09-21T05:21:26.413Z,6.57
2022-09-21T05:24:16.733Z,6.32
2022-09-21T05:27:06.861Z,6.80
2022-09-21T05:29:57.140Z,6.90
2022-09-21T05:32:57.097Z,17.00
2022-09-21T05:36:10.027Z,12.52
2022-09-21T05:39:00.346Z,22.45
2022-09-21T05:41:50.682Z,13.32
2022-09-21T05:44:41.233Z,12.63
2022-09-21T05:47:43.274Z,7.80
2022-09-21T05:50:58.317Z,7.22
2022-09-21T05:54:06.958Z,7.05
2022-09-21T05:57:30.643Z,9.32
2022-09-21T06:00:23.154Z,9.50
2022-09-21T06:03:25.813Z,8.32
2022-09-21T06:06:18.165Z,7.00
2022-09-21T06:09:08.643Z,7.88
2022-09-21T06:11:59.222Z,8.07
2022-09-21T06:14:49.599Z,7.10
2022-09-21T06:17:40.029Z,8.20
2022-09-21T06:20:30.062Z,8.32
2022-09-21T06:23:19.948Z,8.70
2022-09-21T06:26:10.078Z,8.38
2022-09-21T06:29:00.423Z,9.68
2022-09-21T06:31:51.289Z,9.88
2022-09-21T06:34:42.834Z,10.65
2022-09-21T06:37:32.949Z,10.82
2022-09-21T06:40:23.404Z,12.35
2022-09-21T06:43:14.055Z,14.75
2022-09-21T06:46:04.809Z,12.18
2022-09-21T06:48:55.089Z,11.73
2022-09-21T06:51:47.841Z,11.23
2022-09-21T06:54:38.856Z,12.35
2022-09-21T06:57:28.806Z,11.07
2022-09-21T07:00:18.876Z,10.75
2022-09-21T07:03:15.345Z,11.50
2022-09-21T07:06:06.535Z,10.10
2022-09-21T07:12:08.115Z,13.57
2022-09-21T07:14:58.359Z,10.93
2022-09-21T07:17:52.356Z,11.88
2022-09-21T07:20:42.860Z,11.60
2022-09-21T07:23:33.332Z,11.00
2022-09-21T07:26:23.107Z,9.32
2022-09-21T07:29:12.967Z,8.15
2022-09-21T07:32:02.921Z,7.65
2022-09-21T07:34:56.435Z,6.30
2022-09-21T07:37:46.569Z,7.00
2022-09-21T07:40:36.606Z,6.38
2022-09-21T07:43:27.660Z,6.10
2022-09-21T07:46:18.425Z,6.22
2022-09-21T07:49:08.570Z,6.32
2022-09-21T07:52:03.552Z,5.93
2022-09-21T07:54:55.113Z,6.00
2022-09-21T07:58:04.434Z,9.25
2022-09-21T08:00:54.585Z,6.15
2022-09-21T08:03:45.005Z,9.48
2022-09-21T08:06:38.017Z,6.00
2022-09-21T08:09:28.174Z,6.70
2022-09-21T08:12:20.453Z,6.35
2022-09-21T08:15:30.642Z,5.78
2022-09-21T08:18:21.225Z,5.93
2022-09-21T08:21:12.309Z,6.35
2022-09-21T08:24:02.890Z,5.55
2022-09-21T08:26:53.529Z,6.63
2022-09-21T08:29:44.059Z,6.13
2022-09-21T08:32:50.402Z,11.30
2022-09-21T08:35:40.842Z,4.20
2022-09-21T08:38:36.178Z,5.07
2022-09-21T08:41:56.709Z,4.43
2022-09-21T08:45:02.313Z,5.15
2022-09-21T08:47:58.011Z,6.15
2022-09-21T08:50:54.508Z,5.15
2022-09-21T08:53:47.811Z,5.40
2022-09-21T08:57:03.484Z,5.45
2022-09-21T08:59:49.896Z,5.28
2022-09-21T09:03:02.128Z,5.43
2022-09-21T09:06:00.101Z,4.90
2022-09-21T09:09:17.083Z,4.82
2022-09-21T09:12:43.021Z,5.05
2022-09-21T09:16:05.354Z,4.13
2022-09-21T09:19:14.056Z,4.28
2022-09-21T09:22:10.167Z,4.13
2022-09-21T09:25:04.361Z,4.40
2022-09-21T09:27:58.003Z,3.60
2022-09-21T09:30:56.822Z,3.53
2022-09-21T09:34:20.269Z,3.05
2022-09-21T09:37:13.520Z,3.58
2022-09-21T09:40:04.248Z,3.42
2022-09-21T09:43:24.079Z,2.65
2022-09-21T09:46:47.078Z,2.85
2022-09-21T09:50:03.611Z,2.70
2022-09-21T09:53:05.072Z,2.08
2022-09-21T09:55:58.300Z,2.28
2022-09-21T09:58:54.451Z,2.07
2022-09-21T10:01:46.843Z,1.73
2022-09-21T10:04:53.781Z,1.50
2022-09-21T10:07:48.840Z,1.98
2022-09-21T10:10:44.369Z,2.28
2022-09-21T10:13:36.586Z,2.53
2022-09-21T10:16:26.619Z,2.72
2022-09-21T10:19:21.581Z,2.75
2022-09-21T10:22:17.894Z,2.90
2022-09-21T10:25:16.918Z,2.60
2022-09-21T10:28:07.149Z,2.80
2022-09-21T10:31:19.267Z,2.72
2022-09-21T10:34:16.469Z,2.60
2022-09-21T10:37:26.875Z,2.03
2022-09-21T10:40:19.991Z,1.92
2022-09-21T10:43:34.429Z,2.00
2022-09-21T10:46:34.445Z,1.52
2022-09-21T10:49:28.479Z,1.42
2022-09-21T10:52:22.153Z,1.05
2022-09-21T10:55:18.383Z,1.40
2022-09-21T10:58:14.137Z,2.22
2022-09-21T11:01:13.549Z,2.45
2022-09-21T11:04:09.968Z,3.38
2022-09-21T11:07:15.045Z,1.25
2022-09-21T11:10:23.599Z,1.50
2022-09-21T11:13:31.378Z,1.20
2022-09-21T11:16:29.279Z,1.65
2022-09-21T11:19:46.887Z,1.10
2022-09-21T11:22:45.503Z,1.52
2022-09-21T11:25:58.169Z,0.98
2022-09-21T11:29:08.353Z,0.88
2022-09-21T11:32:26.831Z,1.25
2022-09-21T11:35:42.144Z,1.00
2022-09-21T11:38:41.175Z,3.30
2022-09-21T11:41:57.625Z,1.48
2022-09-21T11:44:59.687Z,12.45
2022-09-21T11:47:49.726Z,2.15
2022-09-21T11:53:54.191Z,3.10
2022-09-21T11:56:48.395Z,1.10
2022-09-21T11:59:47.078Z,1.23
2022-09-21T12:02:58.187Z,0.90
2022-09-21T12:06:04.325Z,0.50
2022-09-21T12:09:01.269Z,0.50
2022-09-21T12:12:01.975Z,0.90
2022-09-21T12:15:02.522Z,0.47
2022-09-21T12:18:08.127Z,0.88
2022-09-21T12:21:15.460Z,0.50
2022-09-21T12:24:22.170Z,0.50
2022-09-21T12:27:26.901Z,0.70
2022-09-21T12:30:19.937Z,0.70
2022-09-21T12:33:23.053Z,1.10
2022-09-21T12:36:29.613Z,0.55
2022-09-21T12:39:27.256Z,0.55
2022-09-21T12:42:44.806Z,0.40
2022-09-21T12:45:47.146Z,0.40
2022-09-21T12:48:39.572Z,0.50
2022-09-21T12:51:45.469Z,0.60
2022-09-21T12:54:46.822Z,0.65
2022-09-21T12:58:04.397Z,0.55
2022-09-21T13:01:21.722Z,0.73
2022-09-21T13:04:26.659Z,0.50
2022-09-21T13:10:31.613Z,0.85
2022-09-21T13:13:30.425Z,0.52
2022-09-21T13:16:36.920Z,0.55
2022-09-21T13:19:31.088Z,0.70
2022-09-21T13:22:26.339Z,0.60
2022-09-21T13:25:27.308Z,0.80
2022-09-21T13:28:21.856Z,0.60
2022-09-21T13:31:40.365Z,0.80
2022-09-21T13:34:31.273Z,0.70
2022-09-21T13:37:27.951Z,0.70
2022-09-21T13:40:38.022Z,0.70
2022-09-21T13:43:47.188Z,0.82
2022-09-21T13:46:37.397Z,0.80
2022-09-21T13:49:33.943Z,0.70
2022-09-21T13:52:48.053Z,0.55
2022-09-21T13:55:42.181Z,0.90
2022-09-21T14:01:46.838Z,0.70
2022-09-21T14:04:37.802Z,0.60
2022-09-21T14:07:31.125Z,0.35
2022-09-21T14:10:23.052Z,0.73
2022-09-21T14:13:41.923Z,0.73
2022-09-21T14:16:35.751Z,1.00
2022-09-21T14:19:33.396Z,0.70
2022-09-21T14:22:26.475Z,0.52
2022-09-21T14:25:27.381Z,0.57
2022-09-21T14:28:19.627Z,0.65
2022-09-21T14:31:19.219Z,0.80
2022-09-21T14:34:18.588Z,0.80
2022-09-21T14:37:37.728Z,0.70
2022-09-21T14:40:42.190Z,0.60
2022-09-21T14:43:35.191Z,0.82
2022-09-21T14:46:55.407Z,0.90
2022-09-21T14:50:18.404Z,0.88
2022-09-21T14:53:27.864Z,0.60
2022-09-21T14:56:51.562Z,0.50
2022-09-21T15:00:00.300Z,0.57
2022-09-21T15:03:09.753Z,0.80
2022-09-21T15:06:38.249Z,0.60
2022-09-21T15:10:19.923Z,0.60
2022-09-21T15:13:20.138Z,0.80
2022-09-21T15:16:41.676Z,0.70
2022-09-21T15:19:37.280Z,0.65
2022-09-21T15:22:27.970Z,0.70
2022-09-21T15:25:18.696Z,0.80
2022-09-21T15:28:11.916Z,0.65
2022-09-21T15:31:02.570Z,0.80
2022-09-21T15:33:53.381Z,0.60
2022-09-21T15:36:44.585Z,0.60
2022-09-21T15:39:35.059Z,0.60
2022-09-21T15:42:25.199Z,0.90
2022-09-21T15:45:17.947Z,1.00
2022-09-21T15:48:12.335Z,0.90
2022-09-21T15:51:12.854Z,0.70
2022-09-21T15:54:09.747Z,1.00
2022-09-21T15:57:08.398Z,0.70
2022-09-21T16:00:01.659Z,0.70
2022-09-21T16:03:06.351Z,0.65
2022-09-21T16:05:57.021Z,0.70
2022-09-21T16:08:47.305Z,0.60
2022-09-21T16:11:37.683Z,0.60
2022-09-21T16:14:46.097Z,0.43
2022-09-21T16:17:37.633Z,0.50
2022-09-21T16:20:45.969Z,0.40
2022-09-21T16:23:39.389Z,0.75
2022-09-21T16:26:36.959Z,0.70
2022-09-21T16:29:38.550Z,0.70
2022-09-21T16:32:31.876Z,0.60
2022-09-21T16:35:27.888Z,0.70
2022-09-21T16:38:20.324Z,1.20
2022-09-21T16:41:10.559Z,1.40
2022-09-21T16:44:00.968Z,0.70
2022-09-21T16:47:00.331Z,0.65
2022-09-21T16:50:02.559Z,0.68
2022-09-21T16:52:53.303Z,0.80
2022-09-21T16:55:43.884Z,0.70
2022-09-21T16:58:33.722Z,0.60
2022-09-21T17:01:23.970Z,1.50
2022-09-21T17:04:14.049Z,0.80
2022-09-21T17:07:05.117Z,0.70
2022-09-21T17:09:55.251Z,0.82
2022-09-21T17:12:45.092Z,0.93
2022-09-21T17:15:36.447Z,0.73
2022-09-21T17:18:26.836Z,0.88
2022-09-21T17:21:17.342Z,0.80
2022-09-21T17:24:07.466Z,1.00
2022-09-21T17:26:57.644Z,0.80
2022-09-21T17:29:49.194Z,0.98
2022-09-21T17:32:42.518Z,0.80
2022-09-21T17:35:38.700Z,0.93
2022-09-21T17:38:28.610Z,1.10
2022-09-21T17:41:32.440Z,0.93
2022-09-21T17:44:39.991Z,1.02
2022-09-21T17:47:33.157Z,1.00
2022-09-21T17:50:25.462Z,1.00
2022-09-21T17:53:34.366Z,1.30
2022-09-21T17:56:40.829Z,1.20
2022-09-21T17:59:37.437Z,1.00
2022-09-21T18:02:27.465Z,1.35
2022-09-21T18:05:25.562Z,1.38
2022-09-21T18:08:15.879Z,1.65
2022-09-21T18:11:40.906Z,1.63
2022-09-21T18:15:02.017Z,1.75
2022-09-21T18:18:09.773Z,1.30
2022-09-21T18:21:05.821Z,1.02
2022-09-21T18:24:01.926Z,1.33
2022-09-21T18:26:52.559Z,1.52
2022-09-21T18:29:43.220Z,1.35
2022-09-21T18:33:10.539Z,1.33
2022-09-21T18:36:08.754Z,0.93
2022-09-21T18:39:33.087Z,1.10
2022-09-21T18:42:41.620Z,1.42
2022-09-21T18:45:45.980Z,1.60
2022-09-21T18:48:51.010Z,1.65
2022-09-21T18:51:50.927Z,1.42
2022-09-21T18:54:41.038Z,1.80
2022-09-21T18:57:32.460Z,1.60
2022-09-21T19:00:31.444Z,1.50
2022-09-21T19:03:22.386Z,1.52
2022-09-21T19:06:23.190Z,1.65
2022-09-21T19:09:38.126Z,1.80
2022-09-21T19:12:43.323Z,1.80
2022-09-21T19:16:01.738Z,2.22
2022-09-21T19:19:34.405Z,2.45
2022-09-21T19:23:03.548Z,2.28
2022-09-21T19:26:02.832Z,1.98
2022-09-21T19:29:13.456Z,2.80
2022-09-21T19:32:14.483Z,2.50
2022-09-21T19:35:24.557Z,2.53
2022-09-21T19:38:14.709Z,2.92
2022-09-21T19:41:17.570Z,2.80
2022-09-21T19:44:38.634Z,2.83
2022-09-21T19:47:43.143Z,3.17
2022-09-21T19:50:43.764Z,3.10
2022-09-21T19:53:52.744Z,3.15
2022-09-21T19:57:07.546Z,3.95
2022-09-21T19:59:58.241Z,5.13
2022-09-21T20:03:05.712Z,3.97
2022-09-21T20:06:11.271Z,3.88
2022-09-21T20:09:42.184Z,5.68
2022-09-21T20:12:43.600Z,5.38
2022-09-21T20:15:42.831Z,6.63
2022-09-21T20:19:17.485Z,7.53
2022-09-21T20:22:14.739Z,5.90
2022-09-21T20:25:23.051Z,3.63
2022-09-21T20:28:13.808Z,2.85
2022-09-21T20:31:04.395Z,2.70
2022-09-21T20:33:54.833Z,2.50
2022-09-21T20:36:45.344Z,2.60
2022-09-21T20:39:35.160Z,2.30
2022-09-21T20:42:26.683Z,2.45
2022-09-21T20:45:16.932Z,2.70
2022-09-21T20:48:13.170Z,2.85
2022-09-21T20:51:07.461Z,2.78
2022-09-21T20:53:58.019Z,2.80
2022-09-21T20:56:49.123Z,2.50
2022-09-21T20:59:39.399Z,2.33
2022-09-21T21:02:29.247Z,2.35
2022-09-21T21:05:19.076Z,3.78
2022-09-21T21:08:09.140Z,11.88
2022-09-21T21:11:00.293Z,14.02
2022-09-21T21:13:50.429Z,2.60
2022-09-21T21:16:40.447Z,2.35
2022-09-21T21:19:31.892Z,2.30
2022-09-21T21:22:21.841Z,2.25
2022-09-21T21:25:11.721Z,2.22
2022-09-21T21:28:02.287Z,2.13
2022-09-21T21:30:53.840Z,2.00
2022-09-21T21:33:43.836Z,2.03
2022-09-21T21:36:34.037Z,2.28
2022-09-21T21:39:24.190Z,2.10
2022-09-21T21:42:14.781Z,2.17
2022-09-21T21:45:05.720Z,2.50
2022-09-21T21:47:55.749Z,2.30
2022-09-21T21:50:46.428Z,2.92
2022-09-21T21:53:38.560Z,3.53
2022-09-21T21:56:29.677Z,2.90
2022-09-21T21:59:21.047Z,2.92
2022-09-21T22:02:11.896Z,2.83
2022-09-21T22:05:02.257Z,2.55
2022-09-21T22:07:52.408Z,2.80
2022-09-21T22:10:49.000Z,2.92
2022-09-21T22:13:40.030Z,3.10
2022-09-21T22:16:32.134Z,3.95
2022-09-21T22:19:22.567Z,3.83
2022-09-21T22:22:12.560Z,3.45
2022-09-21T22:25:03.434Z,3.78
2022-09-21T22:27:53.352Z,3.78
2022-09-21T22:30:50.718Z,3.88
2022-09-21T22:33:41.509Z,3.67
2022-09-21T22:36:33.401Z,3.72
2022-09-21T22:39:23.405Z,4.10
2022-09-21T22:42:14.294Z,4.30
2022-09-21T22:45:04.688Z,3.78
2022-09-21T22:47:55.497Z,4.20
2022-09-21T22:50:45.599Z,4.30
2022-09-21T22:53:35.824Z,4.40
2022-09-21T22:56:28.479Z,3.90
2022-09-21T22:59:18.559Z,4.30
2022-09-21T23:02:10.397Z,4.10
2022-09-21T23:05:00.734Z,4.00
2022-09-21T23:07:52.413Z,4.00
2022-09-21T23:10:42.427Z,3.80
2022-09-21T23:13:32.745Z,4.00
2022-09-21T23:16:23.657Z,3.80
2022-09-21T23:19:17.663Z,4.45
2022-09-21T23:22:09.919Z,4.28
2022-09-21T23:25:00.076Z,3.92
2022-09-21T23:27:50.615Z,4.32
2022-09-21T23:30:40.860Z,4.50
2022-09-21T23:33:35.517Z,3.83
2022-09-21T23:36:28.339Z,4.95
2022-09-21T23:39:18.622Z,4.65
2022-09-21T23:42:09.193Z,4.45
2022-09-21T23:44:59.025Z,4.40
2022-09-21T23:47:48.973Z,4.25
2022-09-21T23:50:38.809Z,5.03
2022-09-21T23:53:28.965Z,5.20
2022-09-21T23:56:21.159Z,5.13
2022-09-21T23:59:12.159Z,4.85
